createdAt,value
2018-02-26T00:00:29.098Z,21.38
2018-02-26T00:01:29.114Z,21.32
2018-02-26T00:02:29.081Z,21.35
2018-02-26T00:03:29.074Z,21.40
2018-02-26T00:04:29.064Z,21.32
2018-02-26T00:05:29.056Z,21.30
2018-02-26T00:06:29.051Z,21.29
2018-02-26T00:07:29.040Z,21.40
2018-02-26T00:08:29.032Z,21.43
2018-02-26T00:09:29.024Z,21.29
2018-02-26T00:10:29.014Z,21.41
2018-02-26T00:11:29.007Z,21.35
2018-02-26T00:12:28.999Z,21.30
2018-02-26T00:13:28.991Z,21.44
2018-02-26T00:14:28.983Z,21.30
2018-02-26T00:15:28.975Z,21.30
2018-02-26T00:16:28.967Z,21.33
2018-02-26T00:17:28.958Z,21.47
2018-02-26T00:18:28.950Z,21.44
2018-02-26T00:19:28.942Z,21.38
2018-02-26T00:20:28.934Z,21.37
2018-02-26T00:21:28.925Z,21.37
2018-02-26T00:22:28.917Z,21.32
2018-02-26T00:23:28.912Z,21.35
2018-02-26T00:24:28.905Z,21.44
2018-02-26T00:25:28.893Z,21.33
2018-02-26T00:26:28.886Z,21.43
2018-02-26T00:27:28.878Z,21.43
2018-02-26T00:28:28.869Z,21.35
2018-02-26T00:29:28.860Z,21.37
2018-02-26T00:30:28.853Z,21.40
2018-02-26T00:31:28.845Z,21.40
2018-02-26T00:32:28.845Z,21.33
2018-02-26T00:33:28.826Z,21.40
2018-02-26T00:34:28.821Z,21.37
2018-02-26T00:35:28.812Z,21.40
2018-02-26T00:36:28.803Z,21.44
2018-02-26T00:37:28.798Z,21.30
2018-02-26T00:38:28.789Z,21.32
2018-02-26T00:39:28.780Z,21.33
2018-02-26T00:40:28.770Z,21.35
2018-02-26T00:41:28.765Z,21.47
2018-02-26T00:42:28.757Z,21.37
2018-02-26T00:43:28.747Z,21.37
2018-02-26T00:44:28.738Z,21.45
2018-02-26T00:45:28.736Z,21.35
2018-02-26T00:46:28.723Z,21.38
2018-02-26T00:47:28.712Z,21.44
2018-02-26T00:48:28.706Z,21.40
2018-02-26T00:49:28.697Z,21.41
2018-02-26T00:50:28.691Z,21.44
2018-02-26T00:51:28.685Z,21.44
2018-02-26T00:52:28.676Z,21.38
2018-02-26T00:53:28.666Z,21.38
2018-02-26T00:54:28.656Z,21.44
2018-02-26T00:55:28.649Z,21.50
2018-02-26T00:56:28.642Z,21.44
2018-02-26T00:57:28.632Z,21.48
2018-02-26T00:58:28.625Z,21.44
2018-02-26T00:59:28.616Z,21.41
2018-02-26T01:00:28.608Z,21.40
2018-02-26T01:01:28.599Z,21.43
2018-02-26T01:02:28.591Z,21.38
2018-02-26T01:03:28.586Z,21.43
2018-02-26T01:04:28.578Z,21.44
2018-02-26T01:05:28.568Z,21.43
2018-02-26T01:06:28.562Z,21.38
2018-02-26T01:07:28.551Z,21.38
2018-02-26T01:08:28.545Z,21.38
2018-02-26T01:09:28.536Z,21.38
2018-02-26T01:10:28.528Z,21.43
2018-02-26T01:11:28.520Z,21.45
2018-02-26T01:12:28.510Z,21.44
2018-02-26T01:13:28.502Z,21.43
2018-02-26T01:14:28.493Z,21.40
2018-02-26T01:15:28.489Z,21.41
2018-02-26T01:16:28.478Z,21.48
2018-02-26T01:17:28.470Z,21.41
2018-02-26T01:18:28.462Z,21.43
2018-02-26T01:19:28.454Z,21.43
2018-02-26T01:20:28.446Z,21.41
2018-02-26T01:21:28.437Z,21.44
2018-02-26T01:22:28.433Z,21.33
2018-02-26T01:23:28.424Z,21.41
2018-02-26T01:24:28.415Z,21.47
2018-02-26T01:25:28.407Z,21.43
2018-02-26T01:26:28.397Z,21.44
2018-02-26T01:27:28.388Z,21.41
2018-02-26T01:28:28.380Z,21.44
2018-02-26T01:29:28.372Z,21.38
2018-02-26T01:30:28.368Z,21.45
2018-02-26T01:31:28.358Z,21.43
2018-02-26T01:32:28.380Z,21.48
2018-02-26T01:33:28.378Z,21.38
2018-02-26T01:34:28.333Z,21.48
2018-02-26T01:35:28.324Z,21.43
2018-02-26T01:36:28.335Z,21.43
2018-02-26T01:37:28.309Z,21.37
2018-02-26T01:38:28.300Z,21.35
2018-02-26T01:39:28.304Z,21.43
2018-02-26T01:40:28.284Z,21.38
2018-02-26T01:41:28.275Z,21.41
2018-02-26T01:42:28.266Z,21.33
2018-02-26T01:43:28.260Z,21.44
2018-02-26T01:44:28.250Z,21.45
2018-02-26T01:45:28.241Z,21.41
2018-02-26T01:46:28.234Z,21.45
2018-02-26T01:47:28.226Z,21.38
2018-02-26T01:48:28.219Z,21.43
2018-02-26T01:49:28.209Z,21.43
2018-02-26T01:50:28.202Z,21.41
2018-02-26T01:51:28.194Z,21.48
2018-02-26T01:52:28.185Z,21.43
2018-02-26T01:53:28.176Z,21.44
2018-02-26T01:54:28.169Z,21.35
2018-02-26T01:55:28.161Z,21.43
2018-02-26T01:56:28.151Z,21.37
2018-02-26T01:57:28.143Z,21.38
2018-02-26T01:58:28.137Z,21.47
2018-02-26T01:59:28.128Z,21.45
2018-02-26T02:00:28.119Z,21.38
2018-02-26T02:01:28.114Z,21.44
2018-02-26T02:02:28.102Z,21.45
2018-02-26T02:03:28.096Z,21.43
2018-02-26T02:04:28.088Z,21.38
2018-02-26T02:05:28.078Z,21.38
2018-02-26T02:06:28.072Z,21.44
2018-02-26T02:07:28.064Z,21.41
2018-02-26T02:08:28.054Z,21.40
2018-02-26T02:09:28.046Z,21.38
2018-02-26T02:10:28.039Z,21.33
2018-02-26T02:11:28.032Z,21.38
2018-02-26T02:12:28.021Z,21.45
2018-02-26T02:13:28.013Z,21.44
2018-02-26T02:14:28.007Z,21.44
2018-02-26T02:15:27.996Z,21.40
2018-02-26T02:16:27.988Z,21.44
2018-02-26T02:17:27.980Z,21.44
2018-02-26T02:18:27.973Z,21.43
2018-02-26T02:19:27.965Z,21.37
2018-02-26T02:20:27.955Z,21.41
2018-02-26T02:21:27.954Z,21.32
2018-02-26T02:22:27.943Z,21.37
2018-02-26T02:23:27.933Z,21.38
2018-02-26T02:24:27.923Z,21.38
2018-02-26T02:25:27.918Z,21.44
2018-02-26T02:26:27.907Z,21.33
2018-02-26T02:27:27.899Z,21.30
2018-02-26T02:28:27.891Z,21.37
2018-02-26T02:29:27.882Z,21.40
2018-02-26T02:30:27.877Z,21.32
2018-02-26T02:31:27.868Z,21.33
2018-02-26T02:32:27.857Z,21.35
2018-02-26T02:33:27.852Z,21.38
2018-02-26T02:34:27.843Z,21.38
2018-02-26T02:35:27.835Z,21.43
2018-02-26T02:36:27.837Z,21.40
2018-02-26T02:37:27.823Z,21.35
2018-02-26T02:38:27.822Z,21.41
2018-02-26T02:39:27.794Z,21.44
2018-02-26T02:40:27.794Z,21.41
2018-02-26T02:41:27.792Z,21.43
2018-02-26T02:42:27.780Z,21.40
2018-02-26T02:43:27.769Z,21.41
2018-02-26T02:44:27.761Z,21.41
2018-02-26T02:45:27.753Z,21.47
2018-02-26T02:46:27.751Z,21.38
2018-02-26T02:47:27.738Z,21.45
2018-02-26T02:48:27.728Z,21.41
2018-02-26T02:49:27.720Z,21.41
2018-02-26T02:50:27.711Z,21.35
2018-02-26T02:51:27.706Z,21.38
2018-02-26T02:52:27.698Z,21.37
2018-02-26T02:53:27.687Z,21.38
2018-02-26T02:54:27.680Z,21.45
2018-02-26T02:55:27.670Z,21.44
2018-02-26T02:56:27.663Z,21.41
2018-02-26T02:57:27.656Z,21.40
2018-02-26T02:58:27.658Z,21.40
2018-02-26T02:59:27.640Z,21.41
2018-02-26T03:00:27.630Z,21.43
2018-02-26T03:01:27.621Z,21.35
2018-02-26T03:02:27.613Z,21.33
2018-02-26T03:03:27.605Z,21.35
2018-02-26T03:04:27.600Z,21.38
2018-02-26T03:05:27.588Z,21.32
2018-02-26T03:06:27.580Z,21.29
2018-02-26T03:07:27.575Z,21.25
2018-02-26T03:08:27.564Z,21.25
2018-02-26T03:09:27.554Z,21.32
2018-02-26T03:10:27.547Z,21.25
2018-02-26T03:11:27.540Z,21.25
2018-02-26T03:12:27.531Z,21.22
2018-02-26T03:13:27.523Z,21.26
2018-02-26T03:14:27.521Z,21.23
2018-02-26T03:15:27.512Z,21.25
2018-02-26T03:16:27.497Z,21.17
2018-02-26T03:17:27.491Z,21.20
2018-02-26T03:18:27.483Z,21.14
2018-02-26T03:19:27.474Z,21.22
2018-02-26T03:20:27.465Z,21.19
2018-02-26T03:21:27.460Z,21.19
2018-02-26T03:22:27.443Z,21.19
2018-02-26T03:23:27.441Z,21.22
2018-02-26T03:24:27.430Z,21.13
2018-02-26T03:25:27.424Z,21.17
2018-02-26T03:26:27.417Z,21.19
2018-02-26T03:27:27.408Z,21.13
2018-02-26T03:28:27.401Z,21.22
2018-02-26T03:29:27.394Z,21.20
2018-02-26T03:30:27.389Z,21.22
2018-02-26T03:31:27.376Z,21.17
2018-02-26T03:32:27.368Z,21.22
2018-02-26T03:33:27.358Z,21.14
2018-02-26T03:34:27.350Z,21.26
2018-02-26T03:35:27.341Z,21.20
2018-02-26T03:36:27.333Z,21.17
2018-02-26T03:37:27.326Z,21.19
2018-02-26T03:38:27.317Z,21.20
2018-02-26T03:39:27.308Z,21.20
2018-02-26T03:40:27.300Z,21.25
2018-02-26T03:41:27.295Z,21.25
2018-02-26T03:42:27.285Z,21.19
2018-02-26T03:43:27.275Z,21.22
2018-02-26T03:44:27.265Z,21.26
2018-02-26T03:45:27.258Z,21.25
2018-02-26T03:46:27.252Z,21.20
2018-02-26T03:47:27.242Z,21.19
2018-02-26T03:48:27.234Z,21.22
2018-02-26T03:49:27.225Z,21.26
2018-02-26T03:50:27.220Z,21.23
2018-02-26T03:51:27.209Z,21.25
2018-02-26T03:52:27.201Z,21.19
2018-02-26T03:53:27.193Z,21.23
2018-02-26T03:54:27.185Z,21.26
2018-02-26T03:55:27.178Z,21.28
2018-02-26T03:56:27.169Z,21.25
2018-02-26T03:57:27.160Z,21.30
2018-02-26T03:58:27.152Z,21.28
2018-02-26T03:59:27.145Z,21.26
2018-02-26T04:00:27.136Z,21.33
2018-02-26T04:01:27.129Z,21.40
2018-02-26T04:02:27.119Z,21.41
2018-02-26T04:03:27.113Z,21.41
2018-02-26T04:04:27.102Z,21.53
2018-02-26T04:05:27.094Z,21.58
2018-02-26T04:06:27.089Z,21.54
2018-02-26T04:07:27.078Z,21.51
2018-02-26T04:08:27.073Z,21.62
2018-02-26T04:09:27.060Z,21.59
2018-02-26T04:10:27.058Z,21.62
2018-02-26T04:11:27.046Z,21.63
2018-02-26T04:12:27.037Z,21.66
2018-02-26T04:13:27.029Z,21.66
2018-02-26T04:14:27.021Z,21.66
2018-02-26T04:15:27.016Z,21.60
2018-02-26T04:16:27.005Z,21.66
2018-02-26T04:17:26.996Z,21.65
2018-02-26T04:18:26.989Z,21.70
2018-02-26T04:19:26.980Z,21.68
2018-02-26T04:20:26.975Z,21.68
2018-02-26T04:21:26.964Z,21.66
2018-02-26T04:22:26.958Z,21.62
2018-02-26T04:23:26.950Z,21.63
2018-02-26T04:24:26.940Z,21.65
2018-02-26T04:25:26.933Z,21.60
2018-02-26T04:26:26.925Z,21.59
2018-02-26T04:27:26.920Z,21.68
2018-02-26T04:28:26.908Z,21.60
2018-02-26T04:29:26.900Z,21.65
2018-02-26T04:30:26.895Z,21.50
2018-02-26T04:31:26.885Z,21.59
2018-02-26T04:32:26.876Z,21.53
2018-02-26T04:33:26.868Z,21.51
2018-02-26T04:34:26.861Z,21.53
2018-02-26T04:35:26.854Z,21.47
2018-02-26T04:36:26.845Z,21.59
2018-02-26T04:37:26.835Z,21.56
2018-02-26T04:38:26.828Z,21.54
2018-02-26T04:39:26.820Z,21.53
2018-02-26T04:40:26.811Z,21.51
2018-02-26T04:41:26.804Z,21.54
2018-02-26T04:42:26.797Z,21.50
2018-02-26T04:43:26.789Z,21.60
2018-02-26T04:44:26.780Z,21.63
2018-02-26T04:45:26.771Z,21.74
2018-02-26T04:46:26.766Z,21.59
2018-02-26T04:47:26.758Z,21.68
2018-02-26T04:48:26.748Z,21.65
2018-02-26T04:49:26.740Z,21.74
2018-02-26T04:50:26.732Z,21.68
2018-02-26T04:51:26.724Z,21.56
2018-02-26T04:52:26.716Z,21.43
2018-02-26T04:53:26.707Z,21.28
2018-02-26T04:54:26.698Z,21.13
2018-02-26T04:55:26.692Z,21.08
2018-02-26T04:56:26.683Z,21.03
2018-02-26T04:57:26.676Z,21.04
2018-02-26T04:58:26.666Z,21.03
2018-02-26T04:59:26.658Z,20.98
2018-02-26T05:00:26.651Z,20.98
2018-02-26T05:01:26.644Z,20.96
2018-02-26T05:02:26.633Z,20.93
2018-02-26T05:03:26.626Z,20.88
2018-02-26T05:04:26.616Z,20.88
2018-02-26T05:05:26.609Z,20.89
2018-02-26T05:06:26.600Z,20.92
2018-02-26T05:07:26.592Z,20.93
2018-02-26T05:08:26.583Z,21.01
2018-02-26T05:09:26.575Z,20.98
2018-02-26T05:10:26.566Z,21.08
2018-02-26T05:11:26.575Z,21.05
2018-02-26T05:12:26.559Z,21.08
2018-02-26T05:13:26.541Z,21.14
2018-02-26T05:14:26.535Z,21.14
2018-02-26T05:15:26.525Z,21.22
2018-02-26T05:16:26.517Z,21.28
2018-02-26T05:17:26.533Z,21.33
2018-02-26T05:18:26.500Z,21.30
2018-02-26T05:19:26.491Z,21.35
2018-02-26T05:20:26.482Z,21.33
2018-02-26T05:21:26.474Z,21.43
2018-02-26T05:22:26.465Z,21.53
2018-02-26T05:23:26.458Z,21.51
2018-02-26T05:24:26.450Z,21.56
2018-02-26T05:25:26.441Z,21.65
2018-02-26T05:26:26.433Z,21.66
2018-02-26T05:27:26.426Z,21.63
2018-02-26T05:28:26.418Z,21.65
2018-02-26T05:29:26.406Z,21.74
2018-02-26T05:30:26.401Z,21.72
2018-02-26T05:31:26.392Z,21.74
2018-02-26T05:32:26.385Z,21.77
2018-02-26T05:33:26.376Z,21.80
2018-02-26T05:34:26.367Z,21.84
2018-02-26T05:35:26.360Z,21.84
2018-02-26T05:36:26.352Z,21.84
2018-02-26T05:37:26.342Z,21.83
2018-02-26T05:38:26.335Z,21.88
2018-02-26T05:39:26.327Z,21.85
2018-02-26T05:40:26.319Z,21.85
2018-02-26T05:41:26.310Z,21.88
2018-02-26T05:42:26.304Z,21.78
2018-02-26T05:43:26.295Z,21.83
2018-02-26T05:44:26.322Z,21.91
2018-02-26T05:45:26.278Z,21.83
2018-02-26T05:46:26.268Z,21.85
2018-02-26T05:47:26.263Z,21.84
2018-02-26T05:48:26.255Z,21.84
2018-02-26T05:49:26.246Z,21.81
2018-02-26T05:50:26.238Z,21.80
2018-02-26T05:51:26.231Z,21.78
2018-02-26T05:52:26.225Z,21.78
2018-02-26T05:53:26.215Z,21.75
2018-02-26T05:54:26.206Z,21.77
2018-02-26T05:55:26.199Z,21.74
2018-02-26T05:56:26.223Z,21.72
2018-02-26T05:57:26.215Z,21.66
2018-02-26T05:58:26.200Z,21.68
2018-02-26T05:59:26.187Z,21.63
2018-02-26T06:00:26.160Z,21.63
2018-02-26T06:01:26.150Z,21.63
2018-02-26T06:02:26.154Z,21.62
2018-02-26T06:03:26.152Z,21.50
2018-02-26T06:04:26.125Z,21.56
2018-02-26T06:05:26.117Z,21.51
2018-02-26T06:06:26.113Z,21.56
2018-02-26T06:07:26.103Z,21.51
2018-02-26T06:08:26.093Z,21.53
2018-02-26T06:09:26.085Z,21.48
2018-02-26T06:10:26.077Z,21.53
2018-02-26T06:11:26.069Z,21.50
2018-02-26T06:12:26.061Z,21.47
2018-02-26T06:13:26.053Z,21.43
2018-02-26T06:14:26.044Z,21.47
2018-02-26T06:15:26.071Z,21.40
2018-02-26T06:16:26.028Z,21.43
2018-02-26T06:17:26.020Z,21.43
2018-02-26T06:18:26.024Z,21.40
2018-02-26T06:19:26.004Z,21.50
2018-02-26T06:20:25.999Z,21.38
2018-02-26T06:21:25.987Z,21.38
2018-02-26T06:22:25.980Z,21.45
2018-02-26T06:23:25.973Z,21.50
2018-02-26T06:24:25.963Z,21.44
2018-02-26T06:25:25.955Z,21.47
2018-02-26T06:26:25.947Z,21.50
2018-02-26T06:27:25.938Z,21.43
2018-02-26T06:28:25.928Z,21.40
2018-02-26T06:29:25.928Z,21.41
2018-02-26T06:30:25.914Z,21.43
2018-02-26T06:31:25.906Z,21.43
2018-02-26T06:32:25.897Z,21.41
2018-02-26T06:33:25.895Z,21.40
2018-02-26T06:34:25.881Z,21.43
2018-02-26T06:35:25.874Z,21.35
2018-02-26T06:36:25.865Z,21.50
2018-02-26T06:37:25.856Z,21.43
2018-02-26T06:38:25.850Z,21.50
2018-02-26T06:39:25.838Z,21.41
2018-02-26T06:40:25.837Z,21.48
2018-02-26T06:41:25.823Z,21.51
2018-02-26T06:42:25.817Z,21.56
2018-02-26T06:43:25.809Z,21.51
2018-02-26T06:44:25.799Z,21.58
2018-02-26T06:45:25.790Z,21.50
2018-02-26T06:46:25.788Z,21.58
2018-02-26T06:47:25.775Z,21.54
2018-02-26T06:48:25.766Z,21.54
2018-02-26T06:49:25.758Z,21.58
2018-02-26T06:50:25.752Z,21.58
2018-02-26T06:51:25.747Z,21.47
2018-02-26T06:52:25.732Z,21.48
2018-02-26T06:53:25.726Z,21.54
2018-02-26T06:54:25.718Z,21.51
2018-02-26T06:55:25.710Z,21.50
2018-02-26T06:56:25.702Z,21.56
2018-02-26T06:57:25.698Z,21.51
2018-02-26T06:58:25.686Z,21.59
2018-02-26T06:59:25.677Z,21.59
2018-02-26T07:00:25.668Z,21.51
2018-02-26T07:01:25.661Z,21.58
2018-02-26T07:02:25.653Z,21.51
2018-02-26T07:03:25.645Z,21.58
2018-02-26T07:04:25.665Z,21.58
2018-02-26T07:05:25.640Z,21.53
2018-02-26T07:06:25.621Z,21.54
2018-02-26T07:07:25.614Z,21.51
2018-02-26T07:08:25.608Z,21.53
2018-02-26T07:09:25.608Z,21.53
2018-02-26T07:10:25.588Z,21.53
2018-02-26T07:11:25.578Z,21.51
2018-02-26T07:12:25.571Z,21.51
2018-02-26T07:13:25.564Z,21.53
2018-02-26T07:14:25.555Z,21.50
2018-02-26T07:15:25.548Z,21.59
2018-02-26T07:16:25.538Z,21.62
2018-02-26T07:17:25.532Z,21.51
2018-02-26T07:18:25.522Z,21.50
2018-02-26T07:19:25.515Z,21.50
2018-02-26T07:20:25.506Z,21.63
2018-02-26T07:21:25.498Z,21.59
2018-02-26T07:22:25.492Z,21.63
2018-02-26T07:23:25.485Z,21.59
2018-02-26T07:24:25.476Z,21.62
2018-02-26T07:25:25.471Z,21.53
2018-02-26T07:26:25.457Z,21.63
2018-02-26T07:27:25.453Z,21.59
2018-02-26T07:28:25.444Z,21.65
2018-02-26T07:29:25.434Z,21.63
2018-02-26T07:30:25.429Z,21.60
2018-02-26T07:31:25.419Z,21.58
2018-02-26T07:32:25.410Z,21.53
2018-02-26T07:33:25.402Z,21.59
2018-02-26T07:34:25.394Z,21.62
2018-02-26T07:35:25.385Z,21.56
2018-02-26T07:36:25.376Z,21.62
2018-02-26T07:37:25.368Z,21.56
2018-02-26T07:38:25.361Z,21.51
2018-02-26T07:39:25.354Z,21.50
2018-02-26T07:40:25.346Z,21.56
2018-02-26T07:41:25.337Z,21.58
2018-02-26T07:42:25.329Z,21.50
2018-02-26T07:43:25.326Z,21.48
2018-02-26T07:44:25.324Z,21.54
2018-02-26T07:45:25.302Z,21.60
2018-02-26T07:46:25.298Z,21.50
2018-02-26T07:47:25.289Z,21.53
2018-02-26T07:48:25.279Z,21.62
2018-02-26T07:49:25.271Z,21.63
2018-02-26T07:50:25.264Z,21.53
2018-02-26T07:51:25.258Z,21.60
2018-02-26T07:52:25.249Z,21.59
2018-02-26T07:53:25.280Z,21.53
2018-02-26T07:54:25.231Z,21.63
2018-02-26T07:55:25.225Z,21.66
2018-02-26T07:56:25.215Z,21.69
2018-02-26T07:57:25.209Z,21.70
2018-02-26T07:58:25.199Z,21.68
2018-02-26T07:59:25.200Z,21.69
2018-02-26T08:00:25.184Z,21.65
2018-02-26T08:01:25.175Z,21.59
2018-02-26T08:02:25.167Z,21.68
2018-02-26T08:03:25.161Z,21.65
2018-02-26T08:04:25.152Z,21.62
2018-02-26T08:05:25.141Z,21.65
2018-02-26T08:06:25.197Z,21.68
2018-02-26T08:07:25.128Z,21.68
2018-02-26T08:08:25.118Z,21.69
2018-02-26T08:09:25.135Z,21.70
2018-02-26T08:10:25.102Z,21.70
2018-02-26T08:11:25.096Z,21.77
2018-02-26T08:12:25.087Z,21.65
2018-02-26T08:13:25.079Z,21.69
2018-02-26T08:14:25.085Z,21.74
2018-02-26T08:15:25.077Z,21.65
2018-02-26T08:16:25.054Z,21.72
2018-02-26T08:17:25.048Z,21.69
2018-02-26T08:18:25.041Z,21.66
2018-02-26T08:19:25.042Z,21.70
2018-02-26T08:20:25.023Z,21.74
2018-02-26T08:21:25.014Z,21.78
2018-02-26T08:22:25.006Z,21.75
2018-02-26T08:23:25.001Z,21.74
2018-02-26T08:24:24.990Z,21.72
2018-02-26T08:25:24.982Z,21.70
2018-02-26T08:26:24.976Z,21.78
2018-02-26T08:27:24.965Z,21.83
2018-02-26T08:28:24.958Z,21.66
2018-02-26T08:29:24.951Z,21.70
2018-02-26T08:30:24.943Z,21.72
2018-02-26T08:31:24.936Z,21.75
2018-02-26T08:32:24.932Z,21.68
2018-02-26T08:33:24.918Z,21.75
2018-02-26T08:34:24.914Z,21.68
2018-02-26T08:35:24.902Z,21.68
2018-02-26T08:36:24.895Z,21.68
2018-02-26T08:37:24.888Z,21.72
2018-02-26T08:38:24.879Z,21.70
2018-02-26T08:39:24.870Z,21.75
2018-02-26T08:40:24.860Z,21.80
2018-02-26T08:41:24.855Z,21.74
2018-02-26T08:42:24.847Z,21.75
2018-02-26T08:43:24.840Z,21.75
2018-02-26T08:44:24.832Z,21.83
2018-02-26T08:45:24.822Z,21.85
2018-02-26T08:46:24.816Z,21.83
2018-02-26T08:47:24.807Z,21.89
2018-02-26T08:48:24.801Z,21.99
2018-02-26T08:49:24.803Z,21.97
2018-02-26T08:50:24.785Z,21.92
2018-02-26T08:51:24.776Z,21.88
2018-02-26T08:52:24.766Z,22.01
2018-02-26T08:53:24.759Z,21.94
2018-02-26T08:54:24.754Z,21.91
2018-02-26T08:55:24.744Z,21.97
2018-02-26T08:56:24.737Z,22.00
2018-02-26T08:57:24.728Z,22.01
2018-02-26T08:58:24.719Z,22.04
2018-02-26T08:59:24.712Z,22.19
2018-02-26T09:00:24.704Z,22.23
2018-02-26T09:01:24.695Z,22.19
2018-02-26T09:02:24.694Z,22.23
2018-02-26T09:03:24.681Z,22.25
2018-02-26T09:04:24.672Z,22.19
2018-02-26T09:05:24.667Z,22.28
2018-02-26T09:06:24.658Z,22.34
2018-02-26T09:07:24.652Z,22.37
2018-02-26T09:08:24.645Z,22.33
2018-02-26T09:09:24.635Z,22.33
2018-02-26T09:10:24.632Z,22.34
2018-02-26T09:11:24.623Z,22.40
2018-02-26T09:12:24.615Z,22.36
2018-02-26T09:13:24.603Z,22.19
2018-02-26T09:14:24.598Z,22.23
2018-02-26T09:15:24.588Z,22.41
2018-02-26T09:16:24.579Z,22.46
2018-02-26T09:17:24.573Z,22.44
2018-02-26T09:18:24.566Z,22.41
2018-02-26T09:19:24.561Z,22.52
2018-02-26T09:20:24.551Z,22.52
2018-02-26T09:21:24.548Z,22.53
2018-02-26T09:22:24.536Z,22.52
2018-02-26T09:23:24.529Z,22.43
2018-02-26T09:24:24.526Z,22.52
2018-02-26T09:25:24.512Z,22.51
2018-02-26T09:26:24.505Z,22.51
2018-02-26T09:27:24.498Z,22.47
2018-02-26T09:28:24.490Z,22.53
2018-02-26T09:29:24.481Z,22.44
2018-02-26T09:30:24.476Z,22.44
2018-02-26T09:31:24.468Z,22.41
2018-02-26T09:32:24.459Z,22.41
2018-02-26T09:33:24.452Z,22.51
2018-02-26T09:34:24.445Z,22.47
2018-02-26T09:35:24.438Z,22.51
2018-02-26T09:36:24.431Z,22.55
2018-02-26T09:37:24.423Z,22.61
2018-02-26T09:38:24.415Z,22.68
2018-02-26T09:39:24.407Z,22.71
2018-02-26T09:40:24.399Z,22.74
2018-02-26T09:41:24.394Z,22.84
2018-02-26T09:42:24.386Z,22.86
2018-02-26T09:43:24.378Z,22.88
2018-02-26T09:44:24.376Z,22.89
2018-02-26T09:45:24.362Z,22.84
2018-02-26T09:46:24.354Z,22.81
2018-02-26T09:47:24.350Z,22.81
2018-02-26T09:48:24.340Z,22.83
2018-02-26T09:49:24.332Z,22.81
2018-02-26T09:50:24.326Z,22.84
2018-02-26T09:51:24.321Z,22.95
2018-02-26T09:52:24.310Z,22.93
2018-02-26T09:53:24.304Z,22.96
2018-02-26T09:54:24.295Z,22.88
2018-02-26T09:55:24.289Z,22.81
2018-02-26T09:56:24.281Z,22.83
2018-02-26T09:57:24.273Z,22.91
2018-02-26T09:58:24.268Z,22.83
2018-02-26T09:59:24.261Z,22.83
2018-02-26T10:00:24.253Z,22.80
2018-02-26T10:01:24.246Z,22.76
2018-02-26T10:02:24.239Z,22.76
2018-02-26T10:03:24.231Z,22.74
2018-02-26T10:04:24.221Z,22.70
2018-02-26T10:05:24.216Z,22.71
2018-02-26T10:06:24.209Z,22.63
2018-02-26T10:07:24.239Z,22.61
2018-02-26T10:08:24.191Z,22.61
2018-02-26T10:09:24.187Z,22.63
2018-02-26T10:10:24.177Z,22.70
2018-02-26T10:11:24.190Z,22.59
2018-02-26T10:12:24.182Z,22.61
2018-02-26T10:13:24.157Z,22.68
2018-02-26T10:14:24.147Z,22.65
2018-02-26T10:15:24.140Z,22.67
2018-02-26T10:16:24.133Z,22.63
2018-02-26T10:17:24.125Z,22.70
2018-02-26T10:18:24.125Z,22.70
2018-02-26T10:19:24.112Z,22.77
2018-02-26T10:20:24.106Z,22.83
2018-02-26T10:21:24.100Z,22.88
2018-02-26T10:22:24.093Z,23.01
2018-02-26T10:23:24.084Z,23.07
2018-02-26T10:24:24.076Z,23.06
2018-02-26T10:25:24.068Z,23.14
2018-02-26T10:26:24.062Z,23.16
2018-02-26T10:27:24.055Z,23.18
2018-02-26T10:28:24.048Z,23.32
2018-02-26T10:29:24.039Z,23.28
2018-02-26T10:30:24.032Z,23.36
2018-02-26T10:31:24.026Z,23.47
2018-02-26T10:32:24.017Z,23.49
2018-02-26T10:33:24.012Z,23.62
2018-02-26T10:34:24.004Z,23.64
2018-02-26T10:35:23.997Z,23.69
2018-02-26T10:36:23.990Z,23.79
2018-02-26T10:37:23.984Z,23.85
2018-02-26T10:38:23.983Z,23.91
2018-02-26T10:39:23.971Z,24.03
2018-02-26T10:40:23.964Z,24.07
2018-02-26T10:41:23.956Z,24.07
2018-02-26T10:42:23.951Z,24.16
2018-02-26T10:43:23.944Z,24.21
2018-02-26T10:44:23.936Z,24.25
2018-02-26T10:45:23.930Z,24.24
2018-02-26T10:46:23.923Z,24.24
2018-02-26T10:47:23.919Z,24.38
2018-02-26T10:48:23.909Z,24.38
2018-02-26T10:49:23.912Z,24.38
2018-02-26T10:50:23.900Z,24.44
2018-02-26T10:51:23.894Z,24.41
2018-02-26T10:52:23.885Z,24.46
2018-02-26T10:53:23.879Z,24.46
2018-02-26T10:54:23.873Z,24.44
2018-02-26T10:55:23.866Z,24.47
2018-02-26T10:56:23.862Z,24.44
2018-02-26T10:57:23.854Z,24.32
2018-02-26T10:58:23.847Z,24.13
2018-02-26T10:59:23.842Z,24.06
2018-02-26T11:00:23.836Z,24.09
2018-02-26T11:01:23.827Z,23.94
2018-02-26T11:02:23.821Z,23.94
2018-02-26T11:03:23.816Z,23.88
2018-02-26T11:04:23.807Z,23.84
2018-02-26T11:05:23.803Z,23.66
2018-02-26T11:06:23.799Z,23.69
2018-02-26T11:07:23.792Z,23.63
2018-02-26T11:08:23.783Z,23.54
2018-02-26T11:09:23.776Z,23.49
2018-02-26T11:10:23.771Z,23.45
2018-02-26T11:11:23.761Z,23.37
2018-02-26T11:12:23.754Z,23.36
2018-02-26T11:13:23.749Z,23.21
2018-02-26T11:14:23.743Z,23.10
2018-02-26T11:15:23.735Z,23.11
2018-02-26T11:16:23.730Z,23.13
2018-02-26T11:17:23.722Z,23.02
2018-02-26T11:18:23.714Z,23.06
2018-02-26T11:19:23.708Z,23.01
2018-02-26T11:20:23.700Z,22.89
2018-02-26T11:21:23.695Z,22.89
2018-02-26T11:22:23.688Z,22.83
2018-02-26T11:23:23.680Z,22.83
2018-02-26T11:24:23.672Z,22.81
2018-02-26T11:25:23.666Z,22.81
2018-02-26T11:26:23.657Z,22.91
2018-02-26T11:27:23.656Z,23.02
2018-02-26T11:28:23.646Z,22.99
2018-02-26T11:29:23.638Z,23.10
2018-02-26T11:30:23.631Z,23.21
2018-02-26T11:31:23.623Z,23.29
2018-02-26T11:32:23.616Z,23.26
2018-02-26T11:33:23.610Z,23.36
2018-02-26T11:34:23.606Z,23.44
2018-02-26T11:35:23.594Z,23.42
2018-02-26T11:36:23.588Z,23.45
2018-02-26T11:37:23.584Z,23.44
2018-02-26T11:38:23.575Z,23.34
2018-02-26T11:39:23.569Z,23.34
2018-02-26T11:40:23.561Z,23.26
2018-02-26T11:41:23.553Z,23.18
2018-02-26T11:42:23.547Z,23.17
2018-02-26T11:43:23.540Z,23.11
2018-02-26T11:44:23.534Z,23.04
2018-02-26T11:45:23.528Z,23.06
2018-02-26T11:46:23.519Z,23.02
2018-02-26T11:47:23.511Z,22.96
2018-02-26T11:48:23.504Z,22.86
2018-02-26T11:49:23.498Z,22.81
2018-02-26T11:50:23.490Z,22.73
2018-02-26T11:51:23.484Z,22.77
2018-02-26T11:52:23.478Z,22.68
2018-02-26T11:53:23.496Z,22.67
2018-02-26T11:54:23.462Z,22.61
2018-02-26T11:55:23.456Z,22.56
2018-02-26T11:56:23.446Z,22.59
2018-02-26T11:57:23.445Z,22.52
2018-02-26T11:58:23.433Z,22.52
2018-02-26T11:59:23.426Z,22.59
2018-02-26T12:00:23.418Z,22.44
2018-02-26T12:01:23.412Z,22.44
2018-02-26T12:02:23.406Z,22.55
2018-02-26T12:03:23.397Z,22.49
2018-02-26T12:04:23.389Z,22.58
2018-02-26T12:05:23.413Z,22.46
2018-02-26T12:06:23.375Z,22.51
2018-02-26T12:07:23.367Z,22.55
2018-02-26T12:08:23.360Z,22.59
2018-02-26T12:09:23.353Z,22.55
2018-02-26T12:10:23.345Z,22.51
2018-02-26T12:11:23.346Z,22.56
2018-02-26T12:12:23.331Z,22.49
2018-02-26T12:13:23.322Z,22.47
2018-02-26T12:14:23.316Z,22.51
2018-02-26T12:15:23.309Z,22.49
2018-02-26T12:16:23.297Z,22.65
2018-02-26T12:17:23.293Z,22.74
2018-02-26T12:18:23.286Z,22.78
2018-02-26T12:19:23.279Z,22.76
2018-02-26T12:20:23.283Z,22.78
2018-02-26T12:21:23.263Z,22.95
2018-02-26T12:22:23.256Z,22.92
2018-02-26T12:23:23.249Z,22.95
2018-02-26T12:24:23.241Z,23.01
2018-02-26T12:25:23.235Z,23.02
2018-02-26T12:26:23.226Z,22.99
2018-02-26T12:27:23.219Z,22.99
2018-02-26T12:28:23.212Z,23.11
2018-02-26T12:29:23.206Z,23.10
2018-02-26T12:30:23.200Z,23.14
2018-02-26T12:31:23.190Z,23.17
2018-02-26T12:32:23.182Z,23.07
2018-02-26T12:33:23.175Z,23.06
2018-02-26T12:34:23.166Z,23.02
2018-02-26T12:35:23.160Z,23.01
2018-02-26T12:36:23.153Z,22.99
2018-02-26T12:37:23.146Z,22.99
2018-02-26T12:38:23.141Z,23.02
2018-02-26T12:39:23.134Z,22.99
2018-02-26T12:40:23.124Z,22.89
2018-02-26T12:41:23.116Z,22.98
2018-02-26T12:42:23.112Z,22.95
2018-02-26T12:43:23.104Z,22.99
2018-02-26T12:44:23.095Z,22.95
2018-02-26T12:45:23.087Z,22.96
2018-02-26T12:46:23.081Z,23.04
2018-02-26T12:47:23.072Z,22.98
2018-02-26T12:48:23.069Z,22.99
2018-02-26T12:49:23.059Z,23.02
2018-02-26T12:50:23.053Z,22.98
2018-02-26T12:51:23.045Z,22.93
2018-02-26T12:52:23.040Z,22.93